Time;durP1;ratioP1;P1;durP2;ratioP2;P2;SDS_P1;SDS_P2;PMS_P1;PMS_P2;Temp;Humidity;BMP_temperature;BMP_pressure;BME280_temperature;BME280_humidity;BME280_pressure;Samples;Min_cycle;Max_cycle;Signal;HPM_P1;HPM_P2
2023/06/28 00:01:00;;;;;;;12.50;7.03;;;;;;;18.48;100.00;99904.97;10456828;28;20411;-66
2023/06/28 00:06:00;;;;;;;14.07;7.65;;;;;;;18.66;100.00;99933.69;10457342;28;20041;-66
2023/06/28 00:11:01;;;;;;;13.40;7.70;;;;;;;18.82;100.00;99937.63;10456258;28;20060;-66
2023/06/28 00:16:02;;;;;;;17.30;8.23;;;;;;;18.68;100.00;99918.13;10457226;28;20044;-66
2023/06/28 00:21:03;;;;;;;12.88;7.10;;;;;;;18.79;100.00;99938.09;10455569;28;20052;-66
2023/06/28 00:26:04;;;;;;;14.27;6.72;;;;;;;18.62;100.00;99933.31;10455970;28;20076;-65
2023/06/28 00:31:05;;;;;;;9.55;6.93;;;;;;;18.66;100.00;99950.63;10457000;28;20061;-65
2023/06/28 00:36:05;;;;;;;11.27;7.32;;;;;;;18.66;100.00;99944.44;10455256;28;20041;-65
2023/06/28 00:41:06;;;;;;;12.68;7.35;;;;;;;18.14;100.00;99860.84;10455941;28;20045;-66
2023/06/28 00:46:07;;;;;;;16.10;7.28;;;;;;;18.77;100.00;99957.13;10455001;28;20485;-66
2023/06/28 00:51:09;;;;;;;15.60;7.38;;;;;;;18.80;100.00;99962.06;10456020;28;20147;-69
2023/06/28 00:56:10;;;;;;;15.48;7.20;;;;;;;18.72;100.00;99940.81;10455847;28;20480;-66
2023/06/28 01:01:11;;;;;;;15.68;7.38;;;;;;;18.79;100.00;99955.03;10455137;28;20032;-66
2023/06/28 01:06:12;;;;;;;18.70;8.40;;;;;;;18.87;100.00;99978.09;10436708;28;20057;-66
2023/06/28 01:11:13;;;;;;;16.80;7.60;;;;;;;18.87;100.00;99983.47;10454858;28;20560;-66
2023/06/28 01:16:14;;;;;;;17.40;7.72;;;;;;;18.45;100.00;99913.50;10455108;28;20037;-66
2023/06/28 01:21:16;;;;;;;14.63;8.38;;;;;;;18.83;100.00;99956.22;10453892;28;20119;-66
2023/06/28 01:26:18;;;;;;;23.88;8.05;;;;;;;18.63;100.00;99918.81;10453371;28;20132;-66
2023/06/28 01:31:18;;;;;;;12.60;7.18;;;;;;;18.92;100.00;99976.34;10454543;28;20514;-66
2023/06/28 01:36:19;;;;;;;13.13;7.60;;;;;;;19.04;100.00;100021.31;10453955;28;20041;-66
2023/06/28 01:41:21;;;;;;;18.73;8.07;;;;;;;18.53;100.00;99952.72;10454686;28;20135;-66
2023/06/28 01:46:22;;;;;;;21.65;8.70;;;;;;;18.48;100.00;99950.72;10436099;28;20407;-66
2023/06/28 01:51:23;;;;;;;13.60;7.63;;;;;;;18.70;100.00;99967.16;10453328;28;20139;-66
2023/06/28 01:56:24;;;;;;;11.70;8.55;;;;;;;18.96;100.00;99997.41;10453304;28;20041;-67
2023/06/28 02:01:25;;;;;;;10.73;7.60;;;;;;;19.11;100.00;100012.06;10454285;28;20047;-66
2023/06/28 02:06:25;;;;;;;10.63;7.97;;;;;;;19.20;100.00;100015.22;10450997;28;20488;-66
2023/06/28 02:11:27;;;;;;;13.75;8.25;;;;;;;19.49;100.00;100035.06;10452948;28;20408;-66
2023/06/28 02:16:31;;;;;;;20.80;8.23;;;;;;;19.64;100.00;100031.88;10453002;28;20041;-67
2023/06/28 02:21:32;;;;;;;10.63;7.47;;;;;;;19.29;100.00;99927.66;10436485;28;20057;-66
2023/06/28 02:26:34;;;;;;;8.35;6.18;;;;;;;20.10;100.00;100002.41;10452777;28;20049;-66
2023/06/28 02:31:35;;;;;;;18.40;5.95;;;;;;;20.42;100.00;99983.91;10452740;28;20106;-66
2023/06/28 02:36:36;;;;;;;9.25;5.45;;;;;;;21.54;100.00;100061.47;10452516;28;20140;-66
2023/06/28 02:41:36;;;;;;;7.07;5.03;;;;;;;22.23;100.00;100071.91;10454067;28;20045;-65
2023/06/28 02:46:37;;;;;;;7.60;5.13;;;;;;;22.97;100.00;100067.88;10460260;28;20033;-66
2023/06/28 02:51:38;;;;;;;7.82;4.90;;;;;;;23.78;96.03;100073.16;10459474;28;20041;-66
2023/06/28 02:56:39;;;;;;;7.60;4.65;;;;;;;24.50;91.02;100078.94;10459741;28;20435;-66
2023/06/28 03:01:39;;;;;;;11.07;4.97;;;;;;;25.01;86.49;100074.44;10459223;28;20037;-67
2023/06/28 03:06:41;;;;;;;7.80;4.30;;;;;;;25.41;82.50;100072.84;10458874;28;20048;-66
2023/06/28 03:11:42;;;;;;;6.88;4.53;;;;;;;25.61;80.13;100082.88;10459328;28;20045;-66
2023/06/28 03:16:43;;;;;;;6.05;4.10;;;;;;;25.24;79.56;100029.59;10458670;28;20049;-65
2023/06/28 03:21:43;;;;;;;10.45;4.55;;;;;;;25.56;79.43;100101.94;10458897;28;20519;-66
2023/06/28 03:26:44;;;;;;;6.55;3.80;;;;;;;25.41;78.90;100091.06;10458555;28;20060;-65
2023/06/28 03:31:45;;;;;;;6.10;3.97;;;;;;;24.58;80.61;100106.38;10458731;28;20089;-65
2023/06/28 03:36:47;;;;;;;5.47;3.42;;;;;;;24.07;80.96;100054.56;10458275;28;20037;-65
2023/06/28 03:41:48;;;;;;;15.45;3.83;;;;;;;25.44;76.71;100066.84;10457955;28;20041;-66
2023/06/28 03:46:48;;;;;;;9.27;3.67;;;;;;;27.09;72.28;100097.84;10440398;28;20048;-66
2023/06/28 03:51:49;;;;;;;5.38;3.85;;;;;;;28.11;68.81;100094.22;10457624;28;20055;-66
2023/06/28 03:56:50;;;;;;;11.65;3.50;;;;;;;28.67;66.36;100093.53;10456858;28;20062;-67
2023/06/28 04:01:50;;;;;;;6.82;3.60;;;;;;;28.85;63.97;100096.56;10456294;28;20048;-67
2023/06/28 04:06:51;;;;;;;5.88;3.13;;;;;;;29.43;63.35;100101.69;10455501;28;20527;-69
2023/06/28 04:11:52;;;;;;;6.30;3.10;;;;;;;29.89;61.84;100100.91;10457381;28;20047;-67
2023/06/28 04:16:53;;;;;;;9.07;4.00;;;;;;;28.40;63.50;100113.25;10455848;28;20049;-67
2023/06/28 04:21:54;;;;;;;4.75;3.60;;;;;;;28.70;61.84;100044.84;10452621;28;20045;-68
2023/06/28 04:26:54;;;;;;;5.72;3.03;;;;;;;29.53;59.55;100103.44;10453292;28;20040;-68
2023/06/28 04:32:22;;;;;;;4.32;2.92;;;;;;;29.64;57.61;100109.56;10452710;28;20061;-67
2023/06/28 04:37:27;;;;;;;7.57;3.20;;;;;;;29.40;58.61;100106.94;10450177;28;20048;-71
2023/06/28 04:42:28;;;;;;;4.93;3.00;;;;;;;29.55;57.33;100103.94;10455217;28;20037;-70
2023/06/28 04:47:29;;;;;;;5.88;2.67;;;;;;;29.08;56.61;100087.50;10455708;28;20040;-67
2023/06/28 04:52:30;;;;;;;4.75;3.00;;;;;;;28.83;56.14;100044.09;10455539;28;20048;-68
2023/06/28 04:57:31;;;;;;;5.85;2.80;;;;;;;28.83;55.33;100087.84;10455345;28;20041;-69
2023/06/28 05:02:33;;;;;;;4.88;2.80;;;;;;;28.76;56.06;100092.88;10453443;28;20139;-68
2023/06/28 05:07:33;;;;;;;6.40;2.50;;;;;;;28.97;55.42;100107.06;10452695;28;20037;-68
2023/06/28 05:12:34;;;;;;;8.65;2.70;;;;;;;28.54;56.52;100091.53;10453012;28;20037;-68
2023/06/28 05:17:36;;;;;;;6.15;2.90;;;;;;;28.37;56.44;100113.84;10451335;28;20036;-68
2023/06/28 05:22:43;;;;;;;6.15;2.70;;;;;;;28.21;58.04;100118.69;10450780;28;20511;-68
2023/06/28 05:27:44;;;;;;;11.00;3.50;;;;;;;27.66;59.39;100122.78;10453270;28;20106;-69
2023/06/28 05:32:45;;;;;;;5.00;2.60;;;;;;;27.44;58.93;100110.41;10452422;28;20049;-68
2023/06/28 05:37:45;;;;;;;5.38;2.70;;;;;;;27.26;58.49;100114.66;10451735;28;20041;-68
2023/06/28 05:42:46;;;;;;;6.10;2.47;;;;;;;27.15;58.46;100087.75;10452962;28;20043;-68
2023/06/28 05:47:47;;;;;;;10.18;2.90;;;;;;;26.99;59.20;100038.75;10453073;28;20508;-68
2023/06/28 05:52:49;;;;;;;5.00;2.42;;;;;;;27.44;57.84;100115.06;10452570;28;20091;-68
2023/06/28 05:57:50;;;;;;;8.40;2.43;;;;;;;27.24;57.71;100092.28;10452549;28;20041;-68
2023/06/28 06:02:51;;;;;;;3.83;2.40;;;;;;;27.04;57.46;100029.72;10433127;28;20473;-68
2023/06/28 06:07:51;;;;;;;6.00;2.20;;;;;;;27.63;56.45;100106.97;10449151;28;20037;-68
2023/06/28 06:12:54;;;;;;;3.80;1.85;;;;;;;27.61;55.41;100100.97;10451527;28;20045;-68
2023/06/28 06:17:55;;;;;;;6.10;2.13;;;;;;;27.59;54.59;100098.56;10455357;28;20041;-68
2023/06/28 06:22:55;;;;;;;4.57;2.10;;;;;;;27.49;53.99;100104.94;10459656;28;20045;-69
2023/06/28 06:27:56;;;;;;;6.95;1.80;;;;;;;27.36;53.60;100083.75;10455999;28;20123;-69
2023/06/28 06:32:58;;;;;;;5.05;2.10;;;;;;;27.67;53.89;100108.84;10455584;28;20488;-68
2023/06/28 06:37:58;;;;;;;3.30;1.80;;;;;;;26.81;53.44;99980.28;10458707;28;20041;-68
2023/06/28 06:42:59;;;;;;;6.07;2.15;;;;;;;27.60;53.73;100085.72;10452855;28;20535;-68
2023/06/28 06:48:00;;;;;;;3.78;2.05;;;;;;;27.77;53.75;100097.00;10451429;28;20055;-68
2023/06/28 06:53:01;;;;;;;2.42;1.60;;;;;;;27.81;52.46;100105.47;10457672;28;20033;-68
2023/06/28 06:58:01;;;;;;;7.00;3.15;;;;;;;28.03;52.26;100100.31;10458828;28;20569;-68
2023/06/28 07:03:02;;;;;;;7.45;2.15;;;;;;;27.39;50.92;99965.06;10456901;28;20037;-68
2023/06/28 07:08:03;;;;;;;2.88;1.60;;;;;;;28.00;50.71;100087.25;10456502;28;20032;-68
2023/06/28 07:13:04;;;;;;;9.20;4.63;;;;;;;27.88;50.88;100054.06;10454063;28;20037;-68
2023/06/28 07:18:05;;;;;;;6.45;2.60;;;;;;;28.05;50.30;100046.22;10454965;28;20048;-67
2023/06/28 07:23:06;;;;;;;8.40;2.78;;;;;;;28.33;50.74;100090.13;10459007;28;20028;-66
2023/06/28 07:28:06;;;;;;;3.15;1.95;;;;;;;28.27;50.56;100085.81;10457540;28;20061;-68
2023/06/28 07:33:08;;;;;;;4.60;1.80;;;;;;;28.52;48.63;100087.47;10457333;28;20444;-67
2023/06/28 07:38:09;;;;;;;4.40;1.80;;;;;;;28.58;48.21;100086.28;10460597;28;20049;-67
2023/06/28 07:43:10;;;;;;;3.03;1.80;;;;;;;28.71;47.38;100076.53;10447022;28;20087;-68
2023/06/28 07:48:11;;;;;;;5.07;1.60;;;;;;;28.65;47.66;100073.06;10441078;28;20048;-68
2023/06/28 07:53:13;;;;;;;3.00;1.60;;;;;;;28.54;46.26;100057.91;10464404;28;21386;-69
2023/06/28 07:58:17;;;;;;;5.43;1.70;;;;;;;28.77;46.17;100057.03;10448324;28;20052;-68
2023/06/28 08:03:19;;;;;;;2.97;1.90;;;;;;;28.97;45.87;100064.13;10448320;28;20033;-67
2023/06/28 08:08:24;;;;;;;6.45;2.00;;;;;;;29.11;46.65;100075.97;10465229;28;20037;-68
2023/06/28 08:13:25;;;;;;;;;;;;;;;29.56;45.56;100064.53;10439013;28;20452;-68
2023/06/28 08:18:27;;;;;;;8.75;1.88;;;;;;;29.35;46.73;100053.94;10439986;28;19917;-69
2023/06/28 08:23:27;;;;;;;11.60;2.15;;;;;;;28.97;46.00;99978.53;10437424;28;20075;-68
2023/06/28 08:28:29;;;;;;;5.57;1.98;;;;;;;29.43;45.51;100057.91;10457608;28;20052;-71
2023/06/28 08:33:30;;;;;;;6.63;2.20;;;;;;;29.22;46.00;100010.94;10440060;28;20049;-67
2023/06/28 08:38:31;;;;;;;5.57;1.98;;;;;;;29.34;46.05;100032.34;10456098;28;20053;-67
2023/06/28 08:43:33;;;;;;;7.05;1.73;;;;;;;29.12;45.44;99997.44;10455763;28;20048;-67
2023/06/28 08:48:34;;;;;;;4.83;1.70;;;;;;;29.17;46.27;99967.28;10455759;28;20068;-67
2023/06/28 08:53:38;;;;;;;4.18;1.98;;;;;;;29.69;44.08;100036.38;10454979;28;20290;-68
2023/06/28 08:58:41;;;;;;;2.20;1.52;;;;;;;29.46;43.12;100035.41;10433397;28;20035;-68
2023/06/28 09:03:43;;;;;;;3.63;1.77;;;;;;;29.53;42.81;100024.91;10453917;28;20052;-73
2023/06/28 09:08:44;;;;;;;2.83;1.80;;;;;;;29.60;41.73;100024.50;10454022;28;20037;-68
2023/06/28 09:13:45;;;;;;;5.63;1.73;;;;;;;29.19;41.66;99934.94;10452672;28;20076;-68
2023/06/28 09:18:46;;;;;;;3.38;1.90;;;;;;;29.98;42.22;100035.28;10454688;28;20036;-68
2023/06/28 09:23:49;;;;;;;21.15;2.10;;;;;;;30.06;41.94;100026.34;10454168;28;20041;-68
2023/06/28 09:28:50;;;;;;;8.27;2.20;;;;;;;29.82;41.75;99958.09;10453694;28;20056;-68
2023/06/28 09:33:54;;;;;;;4.30;2.00;;;;;;;30.19;39.93;100027.47;10453724;28;20045;-68
2023/06/28 09:38:56;;;;;;;4.00;2.38;;;;;;;30.30;40.54;100020.66;10454839;28;20063;-68
2023/06/28 09:43:57;;;;;;;6.97;2.30;;;;;;;30.28;40.73;99995.50;10454344;28;20033;-68
2023/06/28 09:48:57;;;;;;;9.35;1.70;;;;;;;30.53;39.49;100017.97;10453926;28;20105;-70
2023/06/28 09:53:58;;;;;;;7.20;1.70;;;;;;;30.73;39.41;100006.53;10460878;28;20063;-68
2023/06/28 09:59:00;;;;;;;2.90;1.50;;;;;;;30.60;38.33;99990.94;10461618;28;20033;-68
2023/06/28 10:04:04;;;;;;;2.77;1.67;;;;;;;30.78;38.75;99991.88;10444300;28;20044;-68
2023/06/28 10:09:05;;;;;;;3.60;1.95;;;;;;;30.79;38.29;99974.34;10461950;28;20071;-67
2023/06/28 10:14:06;;;;;;;7.07;1.73;;;;;;;30.82;37.89;99980.00;10462028;28;20044;-67
2023/06/28 10:19:09;;;;;;;3.05;1.48;;;;;;;30.45;36.28;99938.13;10461400;28;20041;-68
2023/06/28 10:24:10;;;;;;;4.15;1.90;;;;;;;30.78;36.97;99983.66;10461320;28;20041;-68
2023/06/28 10:29:12;;;;;;;8.68;1.60;;;;;;;30.84;36.83;99955.84;10460298;28;20063;-69
2023/06/28 10:34:15;;;;;;;2.30;1.57;;;;;;;30.92;34.96;99963.28;10461623;28;20143;-72
2023/06/28 10:39:38;;;;;;;7.53;2.67;;;;;;;30.98;35.92;99971.41;10443070;28;20035;-68
2023/06/28 10:44:53;;;;;;;11.77;3.25;;;;;;;30.87;35.17;99968.09;10461453;28;20045;-68
2023/06/28 10:50:15;;;;;;;5.00;1.90;;;;;;;31.06;35.41;99965.97;10460795;28;20040;-68
2023/06/28 10:55:29;;;;;;;4.03;2.00;;;;;;;31.10;34.09;99966.94;10459801;28;20052;-71
2023/06/28 11:00:45;;;;;;;6.13;2.00;;;;;;;31.22;34.81;99965.56;10441700;28;20037;-68
2023/06/28 11:06:04;;;;;;;3.08;1.63;;;;;;;31.30;34.96;99953.81;10457302;28;20548;-73
2023/06/28 11:11:07;;;;;;;8.95;2.40;;;;;;;31.43;35.43;99960.34;10457423;28;20064;-70
2023/06/28 11:16:13;;;;;;;4.85;1.58;;;;;;;31.05;34.86;99894.94;10455777;28;20079;-69
2023/06/28 11:21:42;;;;;;;6.25;1.83;;;;;;;31.50;34.17;99961.53;10456749;28;20079;-68
2023/06/28 11:26:42;;;;;;;3.40;1.75;;;;;;;31.33;34.39;99926.53;10455738;28;20037;-69
2023/06/28 11:31:48;;;;;;;2.83;1.75;;;;;;;31.31;34.10;99952.69;10457580;28;20424;-68
2023/06/28 11:36:51;;;;;;;5.30;1.88;;;;;;;31.52;35.14;99951.00;10455166;28;20029;-68
2023/06/28 11:41:51;;;;;;;;;;;;;;;31.91;34.58;99945.81;10456736;28;20079;-68
2023/06/28 11:46:53;;;;;;;2.22;1.60;;;;;;;31.41;33.47;99946.13;10456013;28;20399;-69
2023/06/28 11:51:54;;;;;;;24.40;2.95;;;;;;;31.40;35.43;99936.28;10456854;28;20170;-68
2023/06/28 11:57:15;;;;;;;7.75;2.00;;;;;;;31.11;34.00;99891.75;10456910;28;20065;-68
2023/06/28 12:02:15;;;;;;;8.60;2.10;;;;;;;31.24;33.10;99928.44;10454383;28;20174;-68
2023/06/28 12:07:21;;;;;;;13.23;1.95;;;;;;;31.12;33.20;99918.06;10455247;28;20191;-68
2023/06/28 12:12:32;;;;;;;17.83;2.60;;;;;;;31.08;33.77;99870.44;10455276;28;20041;-68
2023/06/28 12:17:43;;;;;;;2.67;1.73;;;;;;;31.47;32.51;99920.16;10454663;28;20040;-68
2023/06/28 12:22:45;;;;;;;12.68;2.13;;;;;;;31.54;33.86;99921.31;10452581;28;20041;-69
2023/06/28 12:28:02;;;;;;;7.70;2.35;;;;;;;31.49;31.77;99920.66;10455173;28;20032;-69
2023/06/28 12:33:07;;;;;;;4.43;1.50;;;;;;;30.92;30.55;99850.84;10455122;28;20044;-68
2023/06/28 12:38:08;;;;;;;22.73;2.15;;;;;;;31.00;33.40;99846.53;10451491;28;20080;-68
2023/06/28 12:43:09;;;;;;;4.45;1.80;;;;;;;31.07;32.86;99855.09;10447497;28;20127;-68
2023/06/28 12:48:10;;;;;;;4.25;2.10;;;;;;;31.43;32.06;99903.50;10451513;28;20048;-68
2023/06/28 12:53:11;;;;;;;5.30;1.83;;;;;;;31.12;32.50;99854.97;10454061;28;20049;-70
2023/06/28 12:58:12;;;;;;;5.53;1.63;;;;;;;31.29;31.39;99898.13;10453538;28;20067;-67
2023/06/28 13:03:13;;;;;;;2.28;1.30;;;;;;;31.25;31.42;99888.09;10455025;28;20068;-68
2023/06/28 13:08:14;;;;;;;24.05;9.32;;;;;;;31.48;32.61;99905.31;10452506;28;20480;-68
2023/06/28 13:13:15;;;;;;;9.07;2.58;;;;;;;31.41;33.09;99885.75;10452472;28;20064;-69
2023/06/28 13:18:15;;;;;;;5.63;1.83;;;;;;;31.54;32.81;99898.56;10452471;28;20040;-70
2023/06/28 13:23:16;;;;;;;2.70;1.70;;;;;;;31.50;31.90;99895.66;10450169;28;20067;-68
2023/06/28 13:28:17;;;;;;;3.72;1.38;;;;;;;31.54;33.65;99868.34;10449832;28;20515;-68
2023/06/28 13:33:18;;;;;;;2.90;1.60;;;;;;;30.95;33.75;99815.69;10452367;28;20037;-68
2023/06/28 13:38:18;;;;;;;4.22;1.65;;;;;;;30.87;32.59;99809.84;10452227;28;20045;-68
2023/06/28 13:43:19;;;;;;;95.13;66.20;;;;;;;31.37;33.21;99877.34;10435915;28;20524;-67
2023/06/28 13:48:20;;;;;;;14.70;9.93;;;;;;;31.36;32.73;99886.72;10454031;28;20033;-68
2023/06/28 13:53:21;;;;;;;5.15;3.28;;;;;;;30.81;32.96;99802.91;10453463;28;20041;-68
2023/06/28 13:58:22;;;;;;;10.13;2.67;;;;;;;31.21;32.98;99885.19;10453778;28;20515;-68
2023/06/28 14:03:26;;;;;;;10.73;2.03;;;;;;;31.05;32.26;99898.50;10453273;28;20039;-68
2023/06/28 14:08:27;;;;;;;9.57;2.45;;;;;;;30.52;34.67;99813.53;10453249;28;20118;-67
2023/06/28 14:13:27;;;;;;;18.60;2.30;;;;;;;30.73;35.03;99890.56;10453611;28;20083;-67
2023/06/28 14:18:28;;;;;;;10.50;2.00;;;;;;;30.35;35.00;99853.38;10453627;28;20072;-68
2023/06/28 14:23:29;;;;;;;4.40;1.80;;;;;;;30.34;33.73;99876.44;10454465;28;20099;-67
2023/06/28 14:28:30;;;;;;;7.20;2.00;;;;;;;30.38;33.82;99893.06;10452596;28;20053;-67
2023/06/28 14:33:49;;;;;;;6.55;1.90;;;;;;;30.35;33.29;99891.75;10453977;28;20051;-68
2023/06/28 14:38:50;;;;;;;9.95;2.03;;;;;;;29.56;34.02;99769.75;10455305;28;20049;-68
2023/06/28 14:43:51;;;;;;;9.10;2.22;;;;;;;30.24;34.36;99884.88;10460808;28;20070;-67
2023/06/28 14:48:52;;;;;;;20.17;2.70;;;;;;;30.11;35.17;99883.00;10460362;28;20405;-68
2023/06/28 14:53:52;;;;;;;4.80;1.90;;;;;;;29.57;34.95;99817.09;10460268;28;20075;-68
2023/06/28 14:58:53;;;;;;;4.75;2.30;;;;;;;29.61;34.87;99820.03;10459666;28;20072;-68
2023/06/28 15:03:54;;;;;;;5.35;2.03;;;;;;;29.92;35.49;99883.97;10441408;28;20484;-68
2023/06/28 15:09:13;;;;;;;6.68;2.50;;;;;;;29.68;35.17;99870.53;10458942;28;20041;-69
2023/06/28 15:14:14;;;;;;;6.65;2.03;;;;;;;29.63;35.46;99889.00;10460080;28;20385;-70
2023/06/28 15:19:15;;;;;;;3.63;2.03;;;;;;;29.35;35.98;99864.34;10441355;28;20033;-68
2023/06/28 15:24:16;;;;;;;10.65;3.40;;;;;;;29.06;36.32;99843.56;10459000;28;20045;-68
2023/06/28 15:29:17;;;;;;;20.95;6.80;;;;;;;29.21;36.98;99896.38;10458347;28;20056;-69
2023/06/28 15:34:18;;;;;;;18.30;5.13;;;;;;;28.97;37.26;99875.44;10441447;28;20080;-70
2023/06/28 15:39:19;;;;;;;15.77;4.85;;;;;;;28.91;37.66;99887.59;10440810;28;20064;-68
2023/06/28 15:44:20;;;;;;;6.80;2.67;;;;;;;28.27;37.80;99801.78;10457529;28;20044;-69
2023/06/28 15:49:23;;;;;;;12.25;2.90;;;;;;;28.16;38.57;99828.44;10457647;28;20047;-68
2023/06/28 15:54:24;;;;;;;7.82;2.30;;;;;;;28.40;38.97;99902.09;10458455;28;20045;-68
2023/06/28 15:59:24;;;;;;;11.60;3.15;;;;;;;28.16;39.27;99889.34;10457380;28;20089;-71
2023/06/28 16:04:25;;;;;;;9.90;3.08;;;;;;;27.81;39.55;99865.28;10457621;28;20064;-68
2023/06/28 16:09:26;;;;;;;9.50;2.90;;;;;;;27.38;39.99;99833.34;10456811;28;20094;-68
2023/06/28 16:14:27;;;;;;;17.05;5.25;;;;;;;27.53;40.68;99886.91;10456356;28;20036;-68
2023/06/28 16:19:27;;;;;;;55.70;27.10;;;;;;;27.25;42.44;99894.88;10456970;28;20098;-69
2023/06/28 16:24:29;;;;;;;21.35;9.20;;;;;;;27.21;42.28;99915.63;10456608;28;20036;-68
2023/06/28 16:29:30;;;;;;;20.55;5.22;;;;;;;27.05;42.49;99922.31;10456159;28;20056;-68
2023/06/28 16:34:32;;;;;;;21.00;4.90;;;;;;;26.75;43.34;99907.06;10455625;28;20041;-68
2023/06/28 16:39:35;;;;;;;22.77;3.87;;;;;;;26.19;43.75;99845.63;10455784;28;20190;-68
2023/06/28 16:44:36;;;;;;;16.57;3.80;;;;;;;26.50;43.82;99908.06;10456372;28;20033;-68
2023/06/28 16:49:36;;;;;;;16.67;4.20;;;;;;;26.30;44.11;99907.09;10455045;28;20299;-68
2023/06/28 16:54:37;;;;;;;12.25;2.90;;;;;;;26.11;44.95;99906.94;10454266;28;20044;-68
2023/06/28 16:59:38;;;;;;;31.02;4.15;;;;;;;25.92;45.75;99917.66;10451455;28;20110;-68
2023/06/28 17:04:39;;;;;;;25.95;4.00;;;;;;;25.61;47.41;99908.00;10453083;28;20044;-68
2023/06/28 17:09:40;;;;;;;17.63;4.97;;;;;;;24.93;47.14;99849.44;10451841;28;20492;-68
2023/06/28 17:14:40;;;;;;;12.70;5.50;;;;;;;25.28;47.42;99929.31;10446644;28;20493;-69
2023/06/28 17:19:41;;;;;;;8.27;4.47;;;;;;;25.07;47.73;99904.03;10450700;28;20074;-69
2023/06/28 17:24:42;;;;;;;28.50;15.55;;;;;;;25.07;47.99;99928.50;10452196;28;20483;-74
2023/06/28 17:29:42;;;;;;;41.05;20.40;;;;;;;24.55;48.69;99864.44;10452669;28;20064;-69
2023/06/28 17:34:45;;;;;;;35.72;18.85;;;;;;;24.74;49.27;99922.56;10452938;28;20056;-68
2023/06/28 17:39:46;;;;;;;22.35;10.13;;;;;;;24.44;50.55;99939.66;10447982;28;20059;-69
2023/06/28 17:44:47;;;;;;;14.48;4.18;;;;;;;23.96;50.29;99883.88;10452117;28;20512;-69
2023/06/28 17:49:47;;;;;;;9.13;2.92;;;;;;;24.33;50.81;99932.53;10450756;28;20079;-69
2023/06/28 17:54:48;;;;;;;6.53;2.10;;;;;;;24.42;49.86;99941.81;10451859;28;20037;-69
2023/06/28 17:59:49;;;;;;;9.38;2.20;;;;;;;23.63;50.12;99805.41;10452603;28;20071;-69
2023/06/28 18:04:50;;;;;;;27.67;2.33;;;;;;;24.05;51.93;99891.25;10452523;28;20036;-69
2023/06/28 18:09:51;;;;;;;11.73;3.03;;;;;;;24.23;51.83;99929.78;10451835;28;20040;-69
2023/06/28 18:14:52;;;;;;;12.30;2.33;;;;;;;24.22;50.76;99928.97;10456050;28;20509;-69
2023/06/28 18:19:53;;;;;;;15.25;3.03;;;;;;;24.21;50.76;99929.25;10457440;28;20053;-68
2023/06/28 18:24:53;;;;;;;10.20;2.28;;;;;;;24.02;51.67;99899.91;10459320;28;20063;-68
2023/06/28 18:29:54;;;;;;;13.27;3.08;;;;;;;23.94;53.05;99903.13;10458820;28;20061;-68
2023/06/28 18:35:14;;;;;;;14.60;2.80;;;;;;;23.74;58.63;99920.16;10458813;28;20132;-67
2023/06/28 18:40:14;;;;;;;26.42;3.28;;;;;;;23.26;57.18;99918.53;10458075;28;20052;-68
2023/06/28 18:45:16;;;;;;;14.75;3.00;;;;;;;23.22;56.03;99921.78;10459327;28;20041;-68
2023/06/28 18:50:35;;;;;;;12.60;2.38;;;;;;;23.27;56.15;99926.38;10458414;28;20048;-68
2023/06/28 18:55:55;;;;;;;12.95;3.10;;;;;;;23.30;56.48;99922.34;10441596;28;20045;-68
2023/06/28 19:00:57;;;;;;;11.25;3.17;;;;;;;23.28;56.11;99921.81;10456768;28;20505;-69
2023/06/28 19:06:17;;;;;;;6.82;2.85;;;;;;;23.25;55.80;99912.31;10455639;28;20093;-68
2023/06/28 19:11:36;;;;;;;12.52;2.95;;;;;;;23.23;56.59;99920.69;10456802;28;20041;-68
2023/06/28 19:16:55;;;;;;;8.48;2.58;;;;;;;23.18;55.88;99915.25;10458250;28;20099;-69
2023/06/28 19:21:56;;;;;;;10.52;2.67;;;;;;;23.00;55.80;99899.41;10458300;28;20106;-68
2023/06/28 19:26:56;;;;;;;13.05;2.15;;;;;;;23.05;55.82;99912.19;10458690;28;20086;-68
2023/06/28 19:32:01;;;;;;;21.88;2.17;;;;;;;23.02;57.50;99913.50;10458966;28;20485;-68
2023/06/28 19:37:02;;;;;;;10.32;2.33;;;;;;;22.94;55.48;99884.16;10459432;28;20041;-69
2023/06/28 19:42:02;;;;;;;11.68;2.65;;;;;;;22.65;55.22;99827.66;10458469;28;20037;-68
2023/06/28 19:47:04;;;;;;;8.13;2.17;;;;;;;23.02;55.23;99889.13;10441141;28;20420;-68
2023/06/28 19:52:25;;;;;;;12.95;2.53;;;;;;;23.17;55.67;99901.97;10457454;28;20041;-69
2023/06/28 19:57:25;;;;;;;6.45;2.22;;;;;;;22.73;56.03;99829.03;10457816;28;20048;-69
2023/06/28 20:02:26;;;;;;;16.10;2.42;;;;;;;23.01;55.62;99863.13;10457874;28;20499;-68
2023/06/28 20:07:46;;;;;;;12.70;2.42;;;;;;;23.19;56.00;99887.06;10438933;28;20122;-70
2023/06/28 20:12:47;;;;;;;9.57;2.58;;;;;;;23.00;56.43;99904.81;10456296;28;20041;-68
2023/06/28 20:17:48;;;;;;;7.47;2.20;;;;;;;22.90;57.14;99896.59;10456895;28;20044;-68
2023/06/28 20:23:08;;;;;;;12.07;2.33;;;;;;;22.65;57.93;99881.81;10456865;28;20484;-69
2023/06/28 20:28:10;;;;;;;9.25;2.08;;;;;;;22.47;58.09;99863.25;10456351;28;20060;-69
2023/06/28 20:33:11;;;;;;;8.65;2.00;;;;;;;22.30;57.37;99841.72;10455963;28;20044;-69
2023/06/28 20:38:12;;;;;;;6.40;2.35;;;;;;;22.68;57.12;99902.94;10455810;28;20037;-69
2023/06/28 20:43:16;;;;;;;8.30;2.17;;;;;;;22.65;57.29;99897.25;10456001;28;20044;-69
2023/06/28 20:48:17;;;;;;;6.38;1.95;;;;;;;22.14;56.92;99821.81;10455338;28;20056;-69
2023/06/28 20:53:18;;;;;;;13.70;2.30;;;;;;;22.50;57.86;99878.97;10455051;28;20045;-69
2023/06/28 20:58:19;;;;;;;10.88;2.22;;;;;;;22.42;58.31;99880.25;10455849;28;20047;-70
2023/06/28 21:03:19;;;;;;;6.05;2.35;;;;;;;22.27;58.54;99861.19;10455282;28;20059;-69
2023/06/28 21:08:20;;;;;;;5.63;2.08;;;;;;;22.14;59.27;99848.88;10454678;28;20048;-69
2023/06/28 21:13:21;;;;;;;7.75;2.00;;;;;;;22.08;59.84;99860.72;10454221;28;20045;-69
2023/06/28 21:18:22;;;;;;;28.55;2.90;;;;;;;21.88;61.22;99845.91;10455609;28;20557;-71
2023/06/28 21:23:23;;;;;;;7.03;2.20;;;;;;;21.80;61.18;99845.53;10454031;28;20036;-69
2023/06/28 21:28:23;;;;;;;7.72;2.85;;;;;;;21.61;62.19;99829.66;10454010;28;20057;-69
2023/06/28 21:33:24;;;;;;;15.15;2.88;;;;;;;21.57;63.58;99819.63;10453847;28;20538;-69
2023/06/28 21:38:25;;;;;;;10.30;2.20;;;;;;;21.50;63.07;99827.91;10436024;28;20408;-70
2023/06/28 21:43:26;;;;;;;7.22;2.55;;;;;;;21.38;62.82;99811.81;10454439;28;20048;-69
2023/06/28 21:48:26;;;;;;;14.35;2.60;;;;;;;21.26;63.33;99823.78;10457149;28;20408;-69
2023/06/28 21:53:27;;;;;;;12.55;2.80;;;;;;;21.11;64.85;99817.13;10462735;28;20127;-69
2023/06/28 21:58:28;;;;;;;15.07;2.92;;;;;;;21.10;67.06;99820.91;10461917;28;20044;-69
2023/06/28 22:03:28;;;;;;;7.45;2.70;;;;;;;20.98;67.47;99814.78;10462515;28;20049;-69
2023/06/28 22:08:29;;;;;;;11.50;2.35;;;;;;;20.78;68.30;99798.31;10461508;28;20037;-69
2023/06/28 22:13:30;;;;;;;9.73;2.22;;;;;;;20.41;69.28;99761.06;10461196;28;20144;-69
2023/06/28 22:18:31;;;;;;;8.95;2.35;;;;;;;20.73;70.85;99824.19;10461265;28;20436;-69
2023/06/28 22:23:32;;;;;;;9.75;2.80;;;;;;;20.42;72.46;99790.47;10461175;28;20040;-69
2023/06/28 22:28:33;;;;;;;9.32;2.33;;;;;;;20.49;73.69;99822.66;10460434;28;20056;-69
2023/06/28 22:33:33;;;;;;;8.38;2.42;;;;;;;19.74;74.47;99738.41;10461714;28;20102;-69
2023/06/28 22:38:35;;;;;;;15.02;2.65;;;;;;;20.10;75.62;99825.25;10461160;28;20037;-69
2023/06/28 22:43:35;;;;;;;15.48;2.88;;;;;;;19.70;75.90;99777.66;10460985;28;20045;-72
2023/06/28 22:48:36;;;;;;;6.43;2.58;;;;;;;19.33;76.27;99720.66;10458875;28;20565;-69
2023/06/28 22:53:37;;;;;;;16.17;2.50;;;;;;;19.70;76.82;99799.22;10460191;28;20044;-69
2023/06/28 22:58:38;;;;;;;9.85;2.72;;;;;;;19.76;77.05;99808.22;10459148;28;20037;-69
2023/06/28 23:03:39;;;;;;;10.45;2.75;;;;;;;19.47;77.72;99764.25;10459365;28;20155;-69
2023/06/28 23:08:41;;;;;;;7.07;2.15;;;;;;;19.45;78.50;99774.47;10460795;28;20091;-69
2023/06/28 23:13:43;;;;;;;9.32;2.70;;;;;;;19.83;79.45;99831.28;10458977;28;20052;-69